createdAt,value
2022-08-22T00:03:09.861Z,1.50
2022-08-22T00:05:56.492Z,1.58
2022-08-22T00:15:57.765Z,1.90
2022-08-22T00:25:59.095Z,1.40
2022-08-22T00:36:00.362Z,2.33
2022-08-22T00:46:01.625Z,1.35
2022-08-22T01:06:31.878Z,1.50
2022-08-22T01:16:33.134Z,1.60
2022-08-22T01:26:34.408Z,1.50
2022-08-22T01:36:38.198Z,1.58
2022-08-22T01:46:39.473Z,1.88
2022-08-22T01:56:40.762Z,1.70
2022-08-22T02:06:42.030Z,1.98
2022-08-22T02:16:43.296Z,1.80
2022-08-22T02:26:44.547Z,1.77
2022-08-22T02:36:45.879Z,1.80
2022-08-22T02:46:47.179Z,2.42
2022-08-22T02:56:48.429Z,1.80
2022-08-22T03:06:49.666Z,2.13
2022-08-22T03:16:50.921Z,1.90
2022-08-22T03:26:52.194Z,1.50
2022-08-22T03:36:53.451Z,2.00
2022-08-22T03:46:54.732Z,2.00
2022-08-22T03:56:58.906Z,2.13
2022-08-22T04:07:01.896Z,2.00
2022-08-22T04:17:03.156Z,3.03
2022-08-22T04:27:04.446Z,2.85
2022-08-22T04:37:05.741Z,4.47
2022-08-22T04:47:07.015Z,4.30
2022-08-22T04:57:08.275Z,4.47
2022-08-22T05:07:09.590Z,4.13
2022-08-22T05:17:10.869Z,4.72
2022-08-22T05:27:16.748Z,4.57
2022-08-22T05:37:20.432Z,4.32
2022-08-22T05:47:21.747Z,4.43
2022-08-22T05:57:23.017Z,4.88
2022-08-22T06:07:24.300Z,5.90
2022-08-22T06:17:25.600Z,5.60
2022-08-22T06:27:26.930Z,5.68
2022-08-22T06:37:32.663Z,6.25
2022-08-22T06:47:35.813Z,6.63
2022-08-22T06:57:37.586Z,5.90
2022-08-22T07:07:39.013Z,6.50
2022-08-22T07:27:55.994Z,6.78
2022-08-22T07:38:00.741Z,6.53
2022-08-22T07:48:02.756Z,6.90
2022-08-22T07:58:08.731Z,4.60
2022-08-22T08:08:15.548Z,5.07
2022-08-22T08:18:21.684Z,6.32
2022-08-22T08:28:23.141Z,3.83
2022-08-22T08:38:24.661Z,3.88
2022-08-22T08:48:26.069Z,3.28
2022-08-22T08:58:27.499Z,3.30
2022-08-22T09:08:28.916Z,2.67
2022-08-22T09:18:30.454Z,3.00
2022-08-22T09:28:31.838Z,2.90
2022-08-22T09:38:33.125Z,2.35
2022-08-22T09:48:36.168Z,3.40
2022-08-22T09:58:40.824Z,2.50
2022-08-22T10:08:46.062Z,2.60
2022-08-22T10:18:53.751Z,2.42
2022-08-22T10:28:56.949Z,2.60
2022-08-22T10:38:58.326Z,1.90
2022-08-22T10:49:00.320Z,2.20
2022-08-22T10:59:09.342Z,1.90
2022-08-22T11:09:10.716Z,2.40
2022-08-22T11:19:14.704Z,2.30
2022-08-22T11:29:17.075Z,2.20
2022-08-22T11:39:19.680Z,1.77
2022-08-22T11:49:21.098Z,2.05
2022-08-22T11:59:28.433Z,2.38
2022-08-22T12:09:29.961Z,2.58
2022-08-22T12:19:32.752Z,2.30
2022-08-22T12:29:39.985Z,2.00
2022-08-22T12:39:46.649Z,2.30
2022-08-22T12:49:55.815Z,2.22
2022-08-22T13:00:03.794Z,2.00
2022-08-22T13:10:11.798Z,2.10
2022-08-22T13:20:20.808Z,2.15
2022-08-22T13:30:26.274Z,1.70
2022-08-22T13:40:34.764Z,1.70
2022-08-22T13:50:53.107Z,1.73
2022-08-22T14:00:58.073Z,1.98
2022-08-22T14:11:02.021Z,2.17
2022-08-22T14:21:10.816Z,1.98
2022-08-22T14:31:18.075Z,2.03
2022-08-22T14:41:24.926Z,1.83
2022-08-22T14:51:32.937Z,2.22
2022-08-22T15:01:40.930Z,1.90
2022-08-22T15:11:46.896Z,2.08
2022-08-22T15:21:55.271Z,1.80
2022-08-22T15:42:13.624Z,1.83
2022-08-22T15:52:19.533Z,1.90
2022-08-22T16:02:21.492Z,1.70
2022-08-22T16:12:23.066Z,1.98
2022-08-22T16:22:24.473Z,1.95
2022-08-22T16:32:25.990Z,2.10
2022-08-22T16:42:27.277Z,1.80
2022-08-22T16:52:28.589Z,2.03
2022-08-22T17:02:30.073Z,1.88
2022-08-22T17:12:31.461Z,2.00
2022-08-22T17:22:32.847Z,1.85
2022-08-22T17:32:37.976Z,1.85
2022-08-22T17:42:45.839Z,2.00
2022-08-22T17:52:56.706Z,1.83
2022-08-22T18:03:02.143Z,2.20
2022-08-22T18:13:10.227Z,2.00
2022-08-22T18:23:21.498Z,2.35
2022-08-22T18:43:51.962Z,2.03
2022-08-22T18:53:53.227Z,1.90
2022-08-22T19:03:54.625Z,2.10
2022-08-22T19:13:56.157Z,1.70
2022-08-22T19:23:57.583Z,2.20
2022-08-22T19:33:59.324Z,1.88
2022-08-22T19:44:00.742Z,2.10
2022-08-22T19:54:02.061Z,2.28
2022-08-22T20:04:03.470Z,2.60
2022-08-22T20:14:04.797Z,1.98
2022-08-22T20:24:06.257Z,2.20
2022-08-22T20:34:07.698Z,2.25
2022-08-22T20:44:08.982Z,2.00
2022-08-22T20:54:19.104Z,2.22
2022-08-22T21:04:20.466Z,2.17
2022-08-22T21:14:21.845Z,2.20
2022-08-22T21:24:23.274Z,2.20
2022-08-22T21:34:27.242Z,1.92
2022-08-22T21:44:28.509Z,2.03
2022-08-22T21:54:29.759Z,1.95
2022-08-22T22:04:31.108Z,2.50
2022-08-22T22:14:32.354Z,2.25
2022-08-22T22:24:33.653Z,2.10
2022-08-22T22:34:34.902Z,2.20
2022-08-22T22:44:36.140Z,2.33
2022-08-22T22:54:37.446Z,2.10
2022-08-22T23:04:38.839Z,2.30
2022-08-22T23:14:42.720Z,2.13
2022-08-22T23:24:44.022Z,2.55
2022-08-22T23:34:47.707Z,2.20
2022-08-22T23:44:48.966Z,2.42
2022-08-22T23:54:51.544Z,2.30
